METAR OBSERVATIONS
Looking Back 6 hours

  • KPBF 141653Z AUTO 24009KT 10SM CLR 29/22 A3005 RMK AO2 SLP171 T02940222 =
  • KPBF 141553Z AUTO 21008KT 10SM CLR 28/22 A3004 RMK AO2 SLP169 T02830222 =
  • KPBF 141453Z AUTO 21006KT 10SM CLR 27/23 A3003 RMK AO2 SLP165 T02670228 50003 =
  • KPBF 141353Z AUTO 19006KT 10SM CLR 24/22 A3004 RMK AO2 SLP168 T02440222 =
  • KPBF 141302Z AUTO 15003KT 8SM FEW003 24/23 A3003 RMK AO2 T02390228 =
  • KPBF 141253Z AUTO 11003KT 6SM BR CLR 24/23 A3003 RMK AO2 SLP166 T02390228 =
  • KPBF 141209Z AUTO 00000KT 3SM BR FEW008 23/22 A3002 RMK AO2 T02280222 =
  • KPBF 141158Z AUTO 07003KT 1 1/4SM BR FEW004 FEW008 23/22 A3002 RMK AO2 T02280217 =
  • KPBF 141153Z AUTO 06003KT 3/4SM BR VV008 22/22 A3002 RMK AO2 SLP162 70002 T02220217 10228 20222 53004 =
  • KPBF 141151Z AUTO 06003KT 1/2SM FG VV008 22/22 A3002 RMK AO2 =
  • KPBF 141144Z AUTO 05003KT 1SM BR VV007 22/22 A3002 RMK AO2 T02220217 =
  • KPBF 141142Z AUTO 00000KT 1 1/2SM BR CLR 22/22 A3002 RMK AO2 T02220217 =
    ________________________________________